createdAt,value
2023-01-29T00:00:10.361Z,39.25
2023-01-29T00:02:39.873Z,37.67
2023-01-29T00:05:25.520Z,41.95
2023-01-29T00:07:53.523Z,38.65
2023-01-29T00:10:20.153Z,40.25
2023-01-29T00:12:46.659Z,40.22
2023-01-29T00:15:13.178Z,40.05
2023-01-29T00:17:39.725Z,41.08
2023-01-29T00:20:06.641Z,41.30
2023-01-29T00:22:33.294Z,39.20
2023-01-29T00:24:59.816Z,38.95
2023-01-29T00:27:26.324Z,39.67
2023-01-29T00:30:08.914Z,39.15
2023-01-29T00:32:36.076Z,37.45
2023-01-29T00:35:02.902Z,37.95
2023-01-29T00:37:29.796Z,39.35
2023-01-29T00:39:56.690Z,39.58
2023-01-29T00:42:42.678Z,37.60
2023-01-29T00:45:11.597Z,36.97
2023-01-29T00:47:38.289Z,38.05
2023-01-29T00:50:07.903Z,35.25
2023-01-29T00:52:36.373Z,38.08
2023-01-29T00:55:04.950Z,36.38
2023-01-29T00:57:32.596Z,36.50
2023-01-29T00:59:59.657Z,34.75
2023-01-29T01:02:45.014Z,34.22
2023-01-29T01:05:17.625Z,36.17
2023-01-29T01:07:48.749Z,35.22
2023-01-29T01:10:27.961Z,34.08
2023-01-29T01:13:02.800Z,33.97
2023-01-29T01:15:37.759Z,34.78
2023-01-29T01:18:04.670Z,34.47
2023-01-29T01:20:34.400Z,36.10
2023-01-29T01:23:00.994Z,32.83
2023-01-29T01:25:27.544Z,33.53
2023-01-29T01:30:25.567Z,33.63
2023-01-29T01:32:52.809Z,34.30
2023-01-29T01:35:19.410Z,33.40
2023-01-29T01:37:45.972Z,34.25
2023-01-29T01:40:19.094Z,27.73
2023-01-29T01:42:54.160Z,30.40
2023-01-29T01:45:42.448Z,30.77
2023-01-29T01:48:21.972Z,31.77
2023-01-29T01:50:53.218Z,31.05
2023-01-29T01:53:26.517Z,29.63
2023-01-29T01:56:04.952Z,32.45
2023-01-29T01:58:35.277Z,29.88
2023-01-29T02:01:04.529Z,30.50
2023-01-29T02:03:52.271Z,29.63
2023-01-29T02:06:37.294Z,31.70
2023-01-29T02:09:32.696Z,29.30
2023-01-29T02:11:59.296Z,29.98
2023-01-29T02:14:25.874Z,31.30
2023-01-29T02:16:52.789Z,30.40
2023-01-29T02:19:36.969Z,30.90
2023-01-29T02:22:20.333Z,30.75
2023-01-29T02:25:21.584Z,28.65
2023-01-29T02:27:48.216Z,28.13
2023-01-29T02:30:20.819Z,29.92
2023-01-29T02:33:01.095Z,27.58
2023-01-29T02:35:46.740Z,29.42
2023-01-29T02:38:45.524Z,29.48
2023-01-29T02:41:27.917Z,30.00
2023-01-29T02:44:05.880Z,31.60
2023-01-29T02:46:35.923Z,29.98
2023-01-29T02:49:11.761Z,31.42
2023-01-29T02:51:47.121Z,29.38
2023-01-29T02:54:37.413Z,29.63
2023-01-29T02:57:29.034Z,26.27
2023-01-29T02:59:59.778Z,31.20
2023-01-29T03:02:51.260Z,30.80
2023-01-29T03:06:12.112Z,31.08
2023-01-29T03:08:43.398Z,28.77
2023-01-29T03:11:15.689Z,30.15
2023-01-29T03:14:10.360Z,29.35
2023-01-29T03:16:41.548Z,28.45
2023-01-29T03:19:26.217Z,29.77
2023-01-29T03:22:00.111Z,28.23
2023-01-29T03:25:08.608Z,28.38
2023-01-29T03:28:00.659Z,28.67
2023-01-29T03:30:53.404Z,30.05
2023-01-29T03:33:33.287Z,28.27
2023-01-29T03:36:06.756Z,30.42
2023-01-29T03:38:33.357Z,28.55
2023-01-29T03:41:06.610Z,29.90
2023-01-29T03:43:49.331Z,28.38
2023-01-29T03:46:29.097Z,28.58
2023-01-29T03:49:12.000Z,29.40
2023-01-29T03:51:55.417Z,29.85
2023-01-29T03:54:28.883Z,29.95
2023-01-29T03:57:05.141Z,29.85
2023-01-29T03:59:38.841Z,30.27
2023-01-29T04:02:27.553Z,30.85
2023-01-29T04:04:58.512Z,32.28
2023-01-29T04:07:25.520Z,28.75
2023-01-29T04:10:09.334Z,29.40
2023-01-29T04:13:01.723Z,30.42
2023-01-29T04:15:32.005Z,26.98
2023-01-29T04:17:59.170Z,28.25
2023-01-29T04:20:38.012Z,27.38
2023-01-29T04:23:20.036Z,27.10
2023-01-29T04:25:54.540Z,28.00
2023-01-29T04:28:29.080Z,28.67
2023-01-29T04:31:08.432Z,29.08
2023-01-29T04:33:40.005Z,30.73
2023-01-29T04:36:35.452Z,27.45
2023-01-29T04:39:11.113Z,29.95
2023-01-29T04:41:41.221Z,31.35
2023-01-29T04:44:20.103Z,29.67
2023-01-29T04:47:00.806Z,30.70
2023-01-29T04:49:46.032Z,31.40
2023-01-29T04:52:20.096Z,29.33
2023-01-29T04:54:57.025Z,30.80
2023-01-29T04:57:34.542Z,31.60
2023-01-29T05:00:08.211Z,30.92
2023-01-29T05:02:38.017Z,30.45
2023-01-29T05:05:06.367Z,32.00
2023-01-29T05:07:34.151Z,28.42
2023-01-29T05:10:00.789Z,30.15
2023-01-29T05:12:28.843Z,31.63
2023-01-29T05:14:56.409Z,32.42
2023-01-29T05:17:22.962Z,31.40
2023-01-29T05:19:49.687Z,32.53
2023-01-29T05:22:17.890Z,29.63
2023-01-29T05:24:44.845Z,32.13
2023-01-29T05:27:36.381Z,32.17
2023-01-29T05:30:03.452Z,31.35
2023-01-29T05:32:29.978Z,32.28
2023-01-29T05:34:56.546Z,33.35
2023-01-29T05:37:23.223Z,31.58
2023-01-29T05:39:49.861Z,31.58
2023-01-29T05:42:16.376Z,32.97
2023-01-29T05:44:42.925Z,33.25
2023-01-29T05:47:09.513Z,33.13
2023-01-29T05:49:37.860Z,34.17
2023-01-29T05:52:05.410Z,33.03
2023-01-29T05:54:31.971Z,31.77
2023-01-29T05:56:58.459Z,34.08
2023-01-29T05:59:25.029Z,33.05
2023-01-29T06:01:51.703Z,35.70
2023-01-29T06:04:18.264Z,31.35
2023-01-29T06:06:44.776Z,31.35
2023-01-29T06:09:11.815Z,31.25
2023-01-29T06:11:39.647Z,31.83
2023-01-29T06:14:06.172Z,30.92
2023-01-29T06:16:32.759Z,34.95
2023-01-29T06:18:59.305Z,33.35
2023-01-29T06:21:25.872Z,30.13
2023-01-29T06:23:53.856Z,34.40
2023-01-29T06:26:20.537Z,34.33
2023-01-29T06:28:50.074Z,30.52
2023-01-29T06:31:33.128Z,32.15
2023-01-29T06:34:04.463Z,34.25
2023-01-29T06:36:31.098Z,34.15
2023-01-29T06:38:57.639Z,31.67
2023-01-29T06:41:25.525Z,30.90
2023-01-29T06:43:52.404Z,33.58
2023-01-29T06:46:18.967Z,31.95
2023-01-29T06:48:45.488Z,32.03
2023-01-29T06:51:12.097Z,33.10
2023-01-29T06:53:39.649Z,30.83
2023-01-29T06:56:06.936Z,30.30
2023-01-29T06:58:33.777Z,32.97
2023-01-29T07:01:05.250Z,32.28
2023-01-29T07:03:31.969Z,32.42
2023-01-29T07:05:58.700Z,34.72
2023-01-29T07:08:25.857Z,31.08
2023-01-29T07:10:52.386Z,31.77
2023-01-29T07:13:18.885Z,32.10
2023-01-29T07:15:45.496Z,31.13
2023-01-29T07:18:12.541Z,34.08
2023-01-29T07:20:40.349Z,30.38
2023-01-29T07:23:08.285Z,32.65
2023-01-29T07:25:35.139Z,33.60
2023-01-29T07:28:02.183Z,31.17
2023-01-29T07:30:29.064Z,32.65
2023-01-29T07:32:55.764Z,33.63
2023-01-29T07:35:22.316Z,34.15
2023-01-29T07:37:49.863Z,30.52
2023-01-29T07:40:17.189Z,31.63
2023-01-29T07:42:44.175Z,31.02
2023-01-29T07:45:11.708Z,29.65
2023-01-29T07:47:38.440Z,30.80
2023-01-29T07:50:05.417Z,31.75
2023-01-29T07:52:33.668Z,30.48
2023-01-29T07:55:02.421Z,35.35
2023-01-29T07:57:30.503Z,28.83
2023-01-29T07:59:56.957Z,31.20
2023-01-29T08:02:23.477Z,32.40
2023-01-29T08:04:50.340Z,31.83
2023-01-29T08:07:16.952Z,33.97
2023-01-29T08:09:43.517Z,34.25
2023-01-29T08:12:10.040Z,33.40
2023-01-29T08:14:37.087Z,32.63
2023-01-29T08:17:03.635Z,34.00
2023-01-29T08:19:30.141Z,33.47
2023-01-29T08:21:56.718Z,30.88
2023-01-29T08:24:28.214Z,30.48
2023-01-29T08:27:03.774Z,30.90
2023-01-29T08:29:30.325Z,32.97
2023-01-29T08:31:56.845Z,32.80
2023-01-29T08:34:23.541Z,31.05
2023-01-29T08:36:50.128Z,33.03
2023-01-29T08:39:16.662Z,28.30
2023-01-29T08:41:43.148Z,33.28
2023-01-29T08:44:09.781Z,26.38
2023-01-29T08:46:37.007Z,33.17
2023-01-29T08:49:03.920Z,30.10
2023-01-29T08:51:30.628Z,34.00
2023-01-29T08:53:57.227Z,32.75
2023-01-29T08:56:23.744Z,31.27
2023-01-29T08:58:50.224Z,33.65
2023-01-29T09:01:17.112Z,32.60
2023-01-29T09:03:44.525Z,33.22
2023-01-29T09:06:12.381Z,29.85
2023-01-29T09:08:39.532Z,30.77
2023-01-29T09:11:06.958Z,33.92
2023-01-29T09:13:33.977Z,27.30
2023-01-29T09:16:04.304Z,31.92
2023-01-29T09:18:31.345Z,32.22
2023-01-29T09:20:58.272Z,33.65
2023-01-29T09:23:24.992Z,32.67
2023-01-29T09:25:51.492Z,33.85
2023-01-29T09:28:18.097Z,32.63
2023-01-29T09:30:44.938Z,32.85
2023-01-29T09:33:11.731Z,32.10
2023-01-29T09:35:43.435Z,32.47
2023-01-29T09:38:10.510Z,34.85
2023-01-29T09:40:58.644Z,31.40
2023-01-29T09:43:49.669Z,29.15
2023-01-29T09:46:38.544Z,30.05
2023-01-29T09:49:17.683Z,31.17
2023-01-29T09:51:48.245Z,30.80
2023-01-29T09:54:19.821Z,25.92
2023-01-29T09:56:46.573Z,35.20
2023-01-29T09:59:14.303Z,31.50
2023-01-29T10:01:51.432Z,31.88
2023-01-29T10:04:20.677Z,33.20
2023-01-29T10:07:17.964Z,27.55
2023-01-29T10:09:53.586Z,30.02
2023-01-29T10:12:26.763Z,32.60
2023-01-29T10:15:29.866Z,32.53
2023-01-29T10:18:22.054Z,28.88
2023-01-29T10:21:16.276Z,32.22
2023-01-29T10:23:50.916Z,29.98
2023-01-29T10:26:21.264Z,33.60
2023-01-29T10:28:50.114Z,30.58
2023-01-29T10:31:25.050Z,29.30
2023-01-29T10:34:01.999Z,28.90
2023-01-29T10:36:45.799Z,29.48
2023-01-29T10:39:18.364Z,29.50
2023-01-29T10:42:12.129Z,32.00
2023-01-29T10:45:22.064Z,29.15
2023-01-29T10:48:22.312Z,28.73
2023-01-29T10:51:07.351Z,30.13
2023-01-29T10:54:08.756Z,31.33
2023-01-29T10:59:05.373Z,28.50
2023-01-29T11:01:32.847Z,31.00
2023-01-29T11:04:02.172Z,31.83
2023-01-29T11:06:31.459Z,31.77
2023-01-29T11:09:22.498Z,28.85
2023-01-29T11:12:01.430Z,30.33
2023-01-29T11:15:00.483Z,29.67
2023-01-29T11:17:27.143Z,30.95
2023-01-29T11:19:57.742Z,29.08
2023-01-29T11:22:30.077Z,28.33
2023-01-29T11:25:19.298Z,29.75
2023-01-29T11:27:48.182Z,30.42
2023-01-29T11:30:27.360Z,27.13
2023-01-29T11:33:08.234Z,27.17
2023-01-29T11:35:36.438Z,27.58
2023-01-29T11:38:23.075Z,29.17
2023-01-29T11:40:49.779Z,27.58
2023-01-29T11:43:30.291Z,27.95
2023-01-29T11:46:10.993Z,27.13
2023-01-29T11:48:45.976Z,27.83
2023-01-29T11:51:22.181Z,27.60
2023-01-29T11:53:54.987Z,29.10
2023-01-29T11:56:22.684Z,27.05
2023-01-29T11:58:50.104Z,28.38
2023-01-29T12:01:19.030Z,31.38
2023-01-29T12:03:53.792Z,26.38
2023-01-29T12:06:52.925Z,29.67
2023-01-29T12:09:22.791Z,28.58
2023-01-29T12:11:49.423Z,25.50
2023-01-29T12:14:33.931Z,29.52
2023-01-29T12:17:07.789Z,27.42
2023-01-29T12:19:43.898Z,28.73
2023-01-29T12:22:20.038Z,29.05
2023-01-29T12:24:52.827Z,31.02
2023-01-29T12:27:27.800Z,28.55
2023-01-29T12:30:20.778Z,28.55
2023-01-29T12:33:35.048Z,26.77
2023-01-29T12:36:10.835Z,26.20
2023-01-29T12:38:37.670Z,26.65
2023-01-29T12:41:22.772Z,26.35
2023-01-29T12:43:52.368Z,25.90
2023-01-29T12:46:23.686Z,50.00
2023-01-29T12:48:50.711Z,27.02
2023-01-29T12:51:22.018Z,27.75
2023-01-29T12:54:09.356Z,27.73
2023-01-29T12:56:39.904Z,27.98
2023-01-29T12:59:21.745Z,27.35
2023-01-29T13:01:53.848Z,26.48
2023-01-29T13:04:36.257Z,28.42
2023-01-29T13:07:12.282Z,26.20
2023-01-29T13:09:42.904Z,26.40
2023-01-29T13:12:16.097Z,27.42
2023-01-29T13:14:58.495Z,26.63
2023-01-29T13:17:33.854Z,27.67
2023-01-29T13:20:05.307Z,24.13
2023-01-29T13:22:34.826Z,25.20
2023-01-29T13:25:05.766Z,28.85
2023-01-29T13:27:34.202Z,24.17
2023-01-29T13:30:01.443Z,25.08
2023-01-29T13:32:31.455Z,24.65
2023-01-29T13:35:00.136Z,24.33
2023-01-29T13:37:49.484Z,25.38
2023-01-29T13:40:25.349Z,25.50
2023-01-29T13:42:54.113Z,24.30
2023-01-29T13:45:25.797Z,24.58
2023-01-29T13:47:52.999Z,23.88
2023-01-29T13:50:26.388Z,26.20
2023-01-29T13:53:03.872Z,25.35
2023-01-29T13:55:38.841Z,25.08
2023-01-29T13:58:06.861Z,23.95
2023-01-29T14:00:33.301Z,25.02
2023-01-29T14:03:11.162Z,23.75
2023-01-29T14:05:57.654Z,24.80
2023-01-29T14:08:39.269Z,24.58
2023-01-29T14:11:17.597Z,23.02
2023-01-29T14:13:48.793Z,23.67
2023-01-29T14:16:15.267Z,21.20
2023-01-29T14:18:58.985Z,21.23
2023-01-29T14:21:31.866Z,20.48
2023-01-29T14:24:17.746Z,21.27
2023-01-29T14:26:47.405Z,22.02
2023-01-29T14:29:33.838Z,20.85
2023-01-29T14:32:07.190Z,19.92
2023-01-29T14:34:43.068Z,19.33
2023-01-29T14:37:15.487Z,20.00
2023-01-29T14:39:47.533Z,20.70
2023-01-29T14:42:22.333Z,19.30
2023-01-29T14:44:58.326Z,19.63
2023-01-29T14:47:27.812Z,19.95
2023-01-29T14:50:03.069Z,19.65
2023-01-29T14:52:39.721Z,19.65
2023-01-29T14:55:09.774Z,20.35
2023-01-29T14:57:37.138Z,19.00
2023-01-29T15:00:16.224Z,18.75
2023-01-29T15:02:44.537Z,18.67
2023-01-29T15:05:13.810Z,19.42
2023-01-29T15:07:48.669Z,17.83
2023-01-29T15:10:27.292Z,18.92
2023-01-29T15:13:17.163Z,19.65
2023-01-29T15:15:47.821Z,19.20
2023-01-29T15:18:21.024Z,17.35
2023-01-29T15:20:47.543Z,18.23
2023-01-29T15:23:27.638Z,19.25
2023-01-29T15:25:56.673Z,17.40
2023-01-29T15:28:23.202Z,18.40
2023-01-29T15:30:57.731Z,18.95
2023-01-29T15:33:24.929Z,19.65
2023-01-29T15:36:07.288Z,17.73
2023-01-29T15:38:34.626Z,16.92
2023-01-29T15:41:03.380Z,18.30
2023-01-29T15:43:37.686Z,17.80
2023-01-29T15:46:22.192Z,17.98
2023-01-29T15:48:49.392Z,18.90
2023-01-29T15:51:18.182Z,18.17
2023-01-29T15:53:57.506Z,18.45
2023-01-29T15:56:29.651Z,16.92
2023-01-29T15:58:57.906Z,17.00
2023-01-29T16:01:28.718Z,17.42
2023-01-29T16:03:59.304Z,18.65
2023-01-29T16:06:26.156Z,17.65
2023-01-29T16:08:54.429Z,19.40
2023-01-29T16:11:21.315Z,17.38
2023-01-29T16:13:49.223Z,18.23
2023-01-29T16:16:15.898Z,17.23
2023-01-29T16:18:57.937Z,18.23
2023-01-29T16:21:37.593Z,20.33
2023-01-29T16:24:13.803Z,17.45
2023-01-29T16:26:43.897Z,20.83
2023-01-29T16:29:13.221Z,17.93
2023-01-29T16:31:40.097Z,19.67
2023-01-29T16:34:09.093Z,20.33
2023-01-29T16:36:35.977Z,19.13
2023-01-29T16:39:05.521Z,19.63
2023-01-29T16:41:35.745Z,21.77
2023-01-29T16:44:20.813Z,19.90
2023-01-29T16:46:48.631Z,20.58
2023-01-29T16:49:30.194Z,19.80
2023-01-29T16:51:57.255Z,20.65
2023-01-29T16:54:27.691Z,20.33
2023-01-29T16:56:59.721Z,20.77
2023-01-29T16:59:33.092Z,21.65
2023-01-29T17:01:59.915Z,20.25
2023-01-29T17:04:27.760Z,19.02
2023-01-29T17:06:56.945Z,19.60
2023-01-29T17:09:27.268Z,22.75
2023-01-29T17:11:55.971Z,20.92
2023-01-29T17:14:24.150Z,20.63
2023-01-29T17:16:56.751Z,22.20
2023-01-29T17:19:25.244Z,20.77
2023-01-29T17:21:51.815Z,19.77
2023-01-29T17:24:18.368Z,20.55
2023-01-29T17:26:44.886Z,20.40
2023-01-29T17:29:17.626Z,22.05
2023-01-29T17:31:44.183Z,22.90
2023-01-29T17:34:14.812Z,21.67
2023-01-29T17:36:42.327Z,21.98
2023-01-29T17:39:22.760Z,21.38
2023-01-29T17:41:54.242Z,21.25
2023-01-29T17:44:21.293Z,22.08
2023-01-29T17:46:48.439Z,21.85
2023-01-29T17:49:30.186Z,21.95
2023-01-29T17:51:57.156Z,17.55
2023-01-29T17:54:25.482Z,21.30
2023-01-29T17:56:52.912Z,22.25
2023-01-29T17:59:21.682Z,20.25
2023-01-29T18:01:50.652Z,22.70
2023-01-29T18:04:17.894Z,21.02
2023-01-29T18:06:47.405Z,23.65
2023-01-29T18:09:15.516Z,21.98
2023-01-29T18:11:42.822Z,20.63
2023-01-29T18:14:14.090Z,20.55
2023-01-29T18:16:43.168Z,21.38
2023-01-29T18:19:14.419Z,23.40
2023-01-29T18:24:08.093Z,24.08
2023-01-29T18:26:35.834Z,22.05
2023-01-29T18:29:03.179Z,21.70
2023-01-29T18:31:30.155Z,20.58
2023-01-29T18:33:56.815Z,22.70
2023-01-29T18:36:23.542Z,22.83
2023-01-29T18:38:50.052Z,22.67
2023-01-29T18:41:16.575Z,22.38
2023-01-29T18:43:44.024Z,21.98
2023-01-29T18:46:10.720Z,22.67
2023-01-29T18:48:37.252Z,22.92
2023-01-29T18:51:04.098Z,22.40
2023-01-29T18:53:30.665Z,23.67
2023-01-29T18:55:59.312Z,23.30
2023-01-29T18:58:35.901Z,21.38
2023-01-29T19:01:10.067Z,21.98
2023-01-29T19:03:40.615Z,22.27
2023-01-29T19:06:10.667Z,21.73
2023-01-29T19:08:37.251Z,20.83
2023-01-29T19:11:07.928Z,21.58
2023-01-29T19:13:36.027Z,21.90
2023-01-29T19:16:06.522Z,22.20
2023-01-29T19:18:33.511Z,23.25
2023-01-29T19:20:59.982Z,21.92
2023-01-29T19:23:26.500Z,22.08
2023-01-29T19:25:53.011Z,20.85
2023-01-29T19:28:19.588Z,21.08
2023-01-29T19:30:46.114Z,20.55
2023-01-29T19:33:12.865Z,20.08
2023-01-29T19:35:44.089Z,21.65
2023-01-29T19:38:10.712Z,20.85
2023-01-29T19:40:39.058Z,18.00
2023-01-29T19:43:05.883Z,20.25
2023-01-29T19:45:49.280Z,21.35
2023-01-29T19:48:22.748Z,19.50
2023-01-29T19:51:00.197Z,20.42
2023-01-29T19:53:30.336Z,17.73
2023-01-29T19:55:57.980Z,20.70
2023-01-29T19:58:25.274Z,20.38
2023-01-29T20:00:59.870Z,20.65
2023-01-29T20:03:27.555Z,21.55
2023-01-29T20:05:54.355Z,19.17
2023-01-29T20:08:20.991Z,21.65
2023-01-29T20:10:48.109Z,19.27
2023-01-29T20:13:15.741Z,21.27
2023-01-29T20:15:47.138Z,18.70
2023-01-29T20:18:13.891Z,18.85
2023-01-29T20:20:42.274Z,18.77
2023-01-29T20:23:09.916Z,21.90
2023-01-29T20:25:37.373Z,21.05
2023-01-29T20:28:05.782Z,20.88
2023-01-29T20:30:33.427Z,20.92
2023-01-29T20:33:02.422Z,19.30
2023-01-29T20:35:30.173Z,19.23
2023-01-29T20:37:56.897Z,20.58
2023-01-29T20:40:23.663Z,19.77
2023-01-29T20:42:50.305Z,21.00
2023-01-29T20:45:16.994Z,19.95
2023-01-29T20:47:45.902Z,20.38
2023-01-29T20:50:13.450Z,20.02
2023-01-29T20:52:40.870Z,21.27
2023-01-29T20:55:09.667Z,21.05
2023-01-29T20:57:37.420Z,20.65
2023-01-29T21:00:07.987Z,18.48
2023-01-29T21:05:02.691Z,19.90
2023-01-29T21:07:29.206Z,21.33
2023-01-29T21:09:55.734Z,19.55
2023-01-29T21:12:22.243Z,20.10
2023-01-29T21:14:48.729Z,21.48
2023-01-29T21:17:15.232Z,20.77
2023-01-29T21:19:43.058Z,19.35
2023-01-29T21:22:09.620Z,20.75
2023-01-29T21:24:36.212Z,19.60
2023-01-29T21:27:02.826Z,20.52
2023-01-29T21:29:29.414Z,20.23
2023-01-29T21:31:56.002Z,20.45
2023-01-29T21:34:22.713Z,20.58
2023-01-29T21:36:49.226Z,20.48
2023-01-29T21:39:20.750Z,21.35
2023-01-29T21:42:09.255Z,20.73
2023-01-29T21:44:36.588Z,20.17
2023-01-29T21:47:12.805Z,22.10
2023-01-29T21:49:43.360Z,21.25
2023-01-29T21:52:11.790Z,20.17
2023-01-29T21:54:43.357Z,21.52
2023-01-29T21:57:12.508Z,21.48
2023-01-29T21:59:39.267Z,20.73
2023-01-29T22:02:06.240Z,20.85
2023-01-29T22:04:32.852Z,20.95
2023-01-29T22:06:59.364Z,20.02
2023-01-29T22:09:25.896Z,23.13
2023-01-29T22:11:52.415Z,20.58
2023-01-29T22:14:19.515Z,21.05
2023-01-29T22:16:46.204Z,21.85
2023-01-29T22:19:13.536Z,21.92
2023-01-29T22:21:40.221Z,20.42
2023-01-29T22:24:07.503Z,24.33
2023-01-29T22:26:34.696Z,22.67
2023-01-29T22:29:01.758Z,22.38
2023-01-29T22:31:28.307Z,22.48
2023-01-29T22:33:54.832Z,24.23
2023-01-29T22:36:21.530Z,23.55
2023-01-29T22:38:48.063Z,20.50
2023-01-29T22:41:14.595Z,23.08
2023-01-29T22:43:41.256Z,24.73
2023-01-29T22:46:08.840Z,22.80
2023-01-29T22:48:35.591Z,20.75
2023-01-29T22:51:11.812Z,23.25
2023-01-29T22:53:57.216Z,20.58
2023-01-29T22:56:25.868Z,22.52
2023-01-29T22:58:53.837Z,22.92
2023-01-29T23:01:21.929Z,22.63
2023-01-29T23:03:48.628Z,21.17
2023-01-29T23:06:15.968Z,23.08
2023-01-29T23:08:43.075Z,22.58
2023-01-29T23:11:13.929Z,21.77
2023-01-29T23:13:42.472Z,22.33
2023-01-29T23:16:09.075Z,22.15
2023-01-29T23:18:35.921Z,23.67
2023-01-29T23:21:04.600Z,23.05
2023-01-29T23:23:31.955Z,22.42
2023-01-29T23:26:18.706Z,21.17
2023-01-29T23:28:45.258Z,21.13
2023-01-29T23:31:12.239Z,22.83
2023-01-29T23:33:38.850Z,23.38
2023-01-29T23:36:06.595Z,23.52
2023-01-29T23:38:33.572Z,21.80
2023-01-29T23:41:00.294Z,22.77
2023-01-29T23:43:28.050Z,20.38
2023-01-29T23:45:54.789Z,21.20
2023-01-29T23:48:21.936Z,22.77
2023-01-29T23:50:49.131Z,22.65
2023-01-29T23:53:15.946Z,23.40
2023-01-29T23:55:42.491Z,21.73
2023-01-29T23:58:09.429Z,21.10
